sensor_id;sensor_type;location;lat;lon;timestamp;P1;durP1;ratioP1;P2;durP2;ratioP2
46377;SDS011;32083;47.360;9.650;2022-08-04T00:00:15;5.57;;;4.90;;
46377;SDS011;32083;47.360;9.650;2022-08-04T00:03:21;6.63;;;4.55;;
46377;SDS011;32083;47.360;9.650;2022-08-04T00:07:39;5.07;;;4.57;;
46377;SDS011;32083;47.360;9.650;2022-08-04T00:10:06;4.72;;;4.28;;
46377;SDS011;32083;47.360;9.650;2022-08-04T00:15:21;6.55;;;4.80;;
46377;SDS011;32083;47.360;9.650;2022-08-04T00:18:34;6.50;;;4.53;;
46377;SDS011;32083;47.360;9.650;2022-08-04T00:21:11;5.10;;;4.20;;
46377;SDS011;32083;47.360;9.650;2022-08-04T00:23:52;5.65;;;4.65;;
46377;SDS011;32083;47.360;9.650;2022-08-04T00:26:44;4.78;;;3.75;;
46377;SDS011;32083;47.360;9.650;2022-08-04T00:29:33;4.45;;;4.03;;
46377;SDS011;32083;47.360;9.650;2022-08-04T00:32:08;5.30;;;4.90;;
46377;SDS011;32083;47.360;9.650;2022-08-04T00:37:16;5.22;;;4.72;;
46377;SDS011;32083;47.360;9.650;2022-08-04T00:39:50;5.10;;;4.43;;
46377;SDS011;32083;47.360;9.650;2022-08-04T00:43:11;4.97;;;4.47;;
46377;SDS011;32083;47.360;9.650;2022-08-04T00:46:01;5.15;;;4.65;;
46377;SDS011;32083;47.360;9.650;2022-08-04T01:06:44;6.65;;;4.20;;
46377;SDS011;32083;47.360;9.650;2022-08-04T01:15:52;6.55;;;4.50;;
46377;SDS011;32083;47.360;9.650;2022-08-04T01:25:48;5.07;;;4.57;;
46377;SDS011;32083;47.360;9.650;2022-08-04T01:35:03;5.07;;;4.50;;
46377;SDS011;32083;47.360;9.650;2022-08-04T01:38:16;5.25;;;4.30;;
46377;SDS011;32083;47.360;9.650;2022-08-04T01:41:12;7.88;;;5.47;;
46377;SDS011;32083;47.360;9.650;2022-08-04T01:43:54;5.30;;;4.70;;
46377;SDS011;32083;47.360;9.650;2022-08-04T01:46:27;6.50;;;4.30;;
46377;SDS011;32083;47.360;9.650;2022-08-04T01:49:07;4.75;;;3.85;;
46377;SDS011;32083;47.360;9.650;2022-08-04T01:51:55;5.30;;;4.70;;
46377;SDS011;32083;47.360;9.650;2022-08-04T01:54:37;4.68;;;4.28;;
46377;SDS011;32083;47.360;9.650;2022-08-04T01:57:24;9.77;;;4.57;;
46377;SDS011;32083;47.360;9.650;2022-08-04T02:01:15;6.28;;;4.70;;
46377;SDS011;32083;47.360;9.650;2022-08-04T02:14:55;4.90;;;3.85;;
46377;SDS011;32083;47.360;9.650;2022-08-04T02:18:26;5.68;;;4.45;;
46377;SDS011;32083;47.360;9.650;2022-08-04T02:22:02;5.95;;;5.43;;
46377;SDS011;32083;47.360;9.650;2022-08-04T02:25:19;5.10;;;3.78;;
46377;SDS011;32083;47.360;9.650;2022-08-04T02:33:01;5.70;;;4.18;;
46377;SDS011;32083;47.360;9.650;2022-08-04T02:36:30;4.13;;;3.72;;
46377;SDS011;32083;47.360;9.650;2022-08-04T02:40:04;5.10;;;4.35;;
46377;SDS011;32083;47.360;9.650;2022-08-04T02:43:57;5.13;;;3.95;;
46377;SDS011;32083;47.360;9.650;2022-08-04T02:47:44;4.20;;;3.80;;
46377;SDS011;32083;47.360;9.650;2022-08-04T02:50:33;4.30;;;3.72;;
46377;SDS011;32083;47.360;9.650;2022-08-04T02:56:54;5.38;;;4.22;;
46377;SDS011;32083;47.360;9.650;2022-08-04T03:00:20;4.70;;;4.00;;
46377;SDS011;32083;47.360;9.650;2022-08-04T03:48:30;5.70;;;4.75;;
46377;SDS011;32083;47.360;9.650;2022-08-04T04:15:13;9.90;;;6.10;;
46377;SDS011;32083;47.360;9.650;2022-08-04T04:23:50;5.55;;;4.95;;
46377;SDS011;32083;47.360;9.650;2022-08-04T04:48:07;5.13;;;4.53;;
46377;SDS011;32083;47.360;9.650;2022-08-04T04:51:02;4.60;;;4.07;;
46377;SDS011;32083;47.360;9.650;2022-08-04T04:53:41;4.60;;;3.90;;
46377;SDS011;32083;47.360;9.650;2022-08-04T04:59:13;5.65;;;3.95;;
46377;SDS011;32083;47.360;9.650;2022-08-04T05:15:34;4.60;;;4.25;;
46377;SDS011;32083;47.360;9.650;2022-08-04T05:18:05;5.13;;;4.63;;
46377;SDS011;32083;47.360;9.650;2022-08-04T05:20:34;9.25;;;5.85;;
46377;SDS011;32083;47.360;9.650;2022-08-04T05:25:45;4.28;;;3.88;;
46377;SDS011;32083;47.360;9.650;2022-08-04T05:28:19;4.40;;;4.00;;
46377;SDS011;32083;47.360;9.650;2022-08-04T05:30:56;4.88;;;4.15;;
46377;SDS011;32083;47.360;9.650;2022-08-04T05:33:48;5.05;;;3.97;;
46377;SDS011;32083;47.360;9.650;2022-08-04T05:36:17;4.68;;;3.90;;
46377;SDS011;32083;47.360;9.650;2022-08-04T05:38:48;4.93;;;4.03;;
46377;SDS011;32083;47.360;9.650;2022-08-04T05:41:17;5.13;;;4.57;;
46377;SDS011;32083;47.360;9.650;2022-08-04T05:43:45;7.07;;;5.20;;
46377;SDS011;32083;47.360;9.650;2022-08-04T05:46:12;4.35;;;3.70;;
46377;SDS011;32083;47.360;9.650;2022-08-04T05:48:41;5.03;;;3.75;;
46377;SDS011;32083;47.360;9.650;2022-08-04T05:51:10;4.20;;;3.58;;
46377;SDS011;32083;47.360;9.650;2022-08-04T05:53:36;4.30;;;3.72;;
46377;SDS011;32083;47.360;9.650;2022-08-04T05:56:08;4.95;;;3.55;;
46377;SDS011;32083;47.360;9.650;2022-08-04T05:58:36;4.47;;;3.17;;
46377;SDS011;32083;47.360;9.650;2022-08-04T06:01:03;5.13;;;3.20;;
46377;SDS011;32083;47.360;9.650;2022-08-04T06:03:32;5.60;;;3.10;;
46377;SDS011;32083;47.360;9.650;2022-08-04T06:06:01;4.47;;;2.83;;
46377;SDS011;32083;47.360;9.650;2022-08-04T06:08:28;3.30;;;3.00;;
46377;SDS011;32083;47.360;9.650;2022-08-04T06:11:00;3.63;;;3.33;;
46377;SDS011;32083;47.360;9.650;2022-08-04T06:13:29;3.42;;;3.13;;
46377;SDS011;32083;47.360;9.650;2022-08-04T06:16:03;4.25;;;3.13;;
46377;SDS011;32083;47.360;9.650;2022-08-04T06:18:30;4.22;;;3.00;;
46377;SDS011;32083;47.360;9.650;2022-08-04T06:20:59;3.40;;;2.90;;
46377;SDS011;32083;47.360;9.650;2022-08-04T06:23:29;4.22;;;3.22;;
46377;SDS011;32083;47.360;9.650;2022-08-04T06:25:58;5.95;;;3.78;;
46377;SDS011;32083;47.360;9.650;2022-08-04T06:28:26;5.90;;;3.30;;
46377;SDS011;32083;47.360;9.650;2022-08-04T06:30:53;3.72;;;3.40;;
46377;SDS011;32083;47.360;9.650;2022-08-04T06:33:21;3.88;;;3.22;;
46377;SDS011;32083;47.360;9.650;2022-08-04T06:35:57;6.07;;;2.92;;
46377;SDS011;32083;47.360;9.650;2022-08-04T06:38:26;8.00;;;3.00;;
46377;SDS011;32083;47.360;9.650;2022-08-04T06:40:54;4.43;;;2.83;;
46377;SDS011;32083;47.360;9.650;2022-08-04T06:43:27;4.32;;;2.97;;
46377;SDS011;32083;47.360;9.650;2022-08-04T06:45:54;4.07;;;3.03;;
46377;SDS011;32083;47.360;9.650;2022-08-04T06:48:21;4.55;;;3.95;;
46377;SDS011;32083;47.360;9.650;2022-08-04T06:50:49;4.20;;;3.33;;
46377;SDS011;32083;47.360;9.650;2022-08-04T06:53:16;5.38;;;3.97;;
46377;SDS011;32083;47.360;9.650;2022-08-04T06:55:43;6.15;;;3.47;;
46377;SDS011;32083;47.360;9.650;2022-08-04T06:58:11;7.32;;;4.50;;
46377;SDS011;32083;47.360;9.650;2022-08-04T07:00:38;3.67;;;3.38;;
46377;SDS011;32083;47.360;9.650;2022-08-04T07:03:06;4.95;;;3.15;;
46377;SDS011;32083;47.360;9.650;2022-08-04T07:05:33;4.10;;;3.17;;
46377;SDS011;32083;47.360;9.650;2022-08-04T07:08:00;4.47;;;3.22;;
46377;SDS011;32083;47.360;9.650;2022-08-04T07:10:27;4.25;;;3.28;;
46377;SDS011;32083;47.360;9.650;2022-08-04T07:12:58;5.97;;;3.58;;
46377;SDS011;32083;47.360;9.650;2022-08-04T07:15:25;3.20;;;2.90;;
46377;SDS011;32083;47.360;9.650;2022-08-04T07:17:52;4.72;;;3.03;;
46377;SDS011;32083;47.360;9.650;2022-08-04T07:20:24;4.13;;;3.72;;
46377;SDS011;32083;47.360;9.650;2022-08-04T07:22:50;3.97;;;3.67;;
46377;SDS011;32083;47.360;9.650;2022-08-04T07:25:17;3.80;;;3.17;;
46377;SDS011;32083;47.360;9.650;2022-08-04T07:27:45;3.35;;;3.13;;
46377;SDS011;32083;47.360;9.650;2022-08-04T07:30:11;5.53;;;3.78;;
46377;SDS011;32083;47.360;9.650;2022-08-04T07:32:38;3.78;;;3.28;;
46377;SDS011;32083;47.360;9.650;2022-08-04T07:35:06;5.00;;;3.08;;
46377;SDS011;32083;47.360;9.650;2022-08-04T07:37:33;3.70;;;3.40;;
46377;SDS011;32083;47.360;9.650;2022-08-04T07:39:59;3.28;;;2.95;;
46377;SDS011;32083;47.360;9.650;2022-08-04T07:42:26;3.38;;;3.08;;
46377;SDS011;32083;47.360;9.650;2022-08-04T07:44:52;3.45;;;3.15;;
46377;SDS011;32083;47.360;9.650;2022-08-04T07:47:18;6.55;;;3.78;;
46377;SDS011;32083;47.360;9.650;2022-08-04T07:49:44;5.85;;;3.85;;
46377;SDS011;32083;47.360;9.650;2022-08-04T07:52:11;6.72;;;4.30;;
46377;SDS011;32083;47.360;9.650;2022-08-04T07:54:38;4.13;;;3.20;;
46377;SDS011;32083;47.360;9.650;2022-08-04T07:57:05;6.15;;;3.70;;
46377;SDS011;32083;47.360;9.650;2022-08-04T07:59:31;5.20;;;3.83;;
46377;SDS011;32083;47.360;9.650;2022-08-04T08:01:59;5.72;;;3.80;;
46377;SDS011;32083;47.360;9.650;2022-08-04T08:04:27;6.07;;;3.40;;
46377;SDS011;32083;47.360;9.650;2022-08-04T08:06:54;5.57;;;3.65;;
46377;SDS011;32083;47.360;9.650;2022-08-04T08:09:22;5.68;;;3.20;;
46377;SDS011;32083;47.360;9.650;2022-08-04T08:11:49;5.68;;;3.35;;
46377;SDS011;32083;47.360;9.650;2022-08-04T08:14:17;6.35;;;3.75;;
46377;SDS011;32083;47.360;9.650;2022-08-04T08:16:43;6.40;;;3.40;;
46377;SDS011;32083;47.360;9.650;2022-08-04T08:19:10;8.23;;;4.85;;
46377;SDS011;32083;47.360;9.650;2022-08-04T08:21:37;5.50;;;3.50;;
46377;SDS011;32083;47.360;9.650;2022-08-04T08:24:03;6.57;;;3.50;;
46377;SDS011;32083;47.360;9.650;2022-08-04T08:26:30;7.20;;;3.97;;
46377;SDS011;32083;47.360;9.650;2022-08-04T08:28:56;7.97;;;4.05;;
46377;SDS011;32083;47.360;9.650;2022-08-04T08:31:22;4.28;;;3.47;;
46377;SDS011;32083;47.360;9.650;2022-08-04T08:33:49;4.45;;;3.47;;
46377;SDS011;32083;47.360;9.650;2022-08-04T08:36:38;5.70;;;3.60;;
46377;SDS011;32083;47.360;9.650;2022-08-04T08:39:15;8.93;;;3.85;;
46377;SDS011;32083;47.360;9.650;2022-08-04T08:53:06;4.70;;;3.20;;
46377;SDS011;32083;47.360;9.650;2022-08-04T09:07:09;4.65;;;4.20;;
46377;SDS011;32083;47.360;9.650;2022-08-04T09:18:01;3.63;;;3.33;;
46377;SDS011;32083;47.360;9.650;2022-08-04T09:20:33;4.65;;;4.15;;
46377;SDS011;32083;47.360;9.650;2022-08-04T09:28:37;3.83;;;3.53;;
46377;SDS011;32083;47.360;9.650;2022-08-04T09:31:42;6.15;;;4.10;;
46377;SDS011;32083;47.360;9.650;2022-08-04T09:42:48;4.10;;;3.70;;
46377;SDS011;32083;47.360;9.650;2022-08-04T09:48:34;4.05;;;3.25;;
46377;SDS011;32083;47.360;9.650;2022-08-04T09:51:13;6.97;;;3.65;;
46377;SDS011;32083;47.360;9.650;2022-08-04T09:54:13;5.88;;;3.80;;
46377;SDS011;32083;47.360;9.650;2022-08-04T10:02:36;5.28;;;3.78;;
46377;SDS011;32083;47.360;9.650;2022-08-04T10:05:07;4.40;;;3.58;;
46377;SDS011;32083;47.360;9.650;2022-08-04T10:10:39;4.28;;;3.65;;
46377;SDS011;32083;47.360;9.650;2022-08-04T10:16:23;4.93;;;3.92;;
46377;SDS011;32083;47.360;9.650;2022-08-04T10:19:12;7.35;;;3.97;;
46377;SDS011;32083;47.360;9.650;2022-08-04T10:24:29;4.78;;;3.97;;
46377;SDS011;32083;47.360;9.650;2022-08-04T10:27:01;7.18;;;4.25;;
46377;SDS011;32083;47.360;9.650;2022-08-04T10:29:43;4.25;;;3.85;;
46377;SDS011;32083;47.360;9.650;2022-08-04T10:32:13;4.25;;;3.90;;
46377;SDS011;32083;47.360;9.650;2022-08-04T10:34:51;4.55;;;3.97;;
46377;SDS011;32083;47.360;9.650;2022-08-04T10:40:32;8.52;;;3.75;;
46377;SDS011;32083;47.360;9.650;2022-08-04T10:46:11;6.72;;;4.40;;
46377;SDS011;32083;47.360;9.650;2022-08-04T10:48:50;5.05;;;3.63;;
46377;SDS011;32083;47.360;9.650;2022-08-04T10:54:12;4.10;;;3.58;;
46377;SDS011;32083;47.360;9.650;2022-08-04T10:56:45;4.63;;;3.78;;
46377;SDS011;32083;47.360;9.650;2022-08-04T11:02:10;4.40;;;3.88;;
46377;SDS011;32083;47.360;9.650;2022-08-04T11:05:00;4.97;;;4.30;;
46377;SDS011;32083;47.360;9.650;2022-08-04T11:07:31;5.60;;;3.55;;
46377;SDS011;32083;47.360;9.650;2022-08-04T11:09:59;4.05;;;3.75;;
46377;SDS011;32083;47.360;9.650;2022-08-04T11:12:25;4.05;;;3.55;;
46377;SDS011;32083;47.360;9.650;2022-08-04T11:14:55;4.82;;;3.85;;
46377;SDS011;32083;47.360;9.650;2022-08-04T11:20:58;5.45;;;4.03;;
46377;SDS011;32083;47.360;9.650;2022-08-04T11:23:23;4.05;;;3.67;;
46377;SDS011;32083;47.360;9.650;2022-08-04T11:25:58;4.70;;;4.20;;
46377;SDS011;32083;47.360;9.650;2022-08-04T11:31:29;9.52;;;4.07;;
46377;SDS011;32083;47.360;9.650;2022-08-04T11:36:35;7.25;;;5.18;;
46377;SDS011;32083;47.360;9.650;2022-08-04T11:39:10;4.18;;;3.78;;
46377;SDS011;32083;47.360;9.650;2022-08-04T11:41:57;4.88;;;3.83;;
46377;SDS011;32083;47.360;9.650;2022-08-04T11:44:51;4.13;;;3.72;;
46377;SDS011;32083;47.360;9.650;2022-08-04T11:52:45;6.10;;;3.63;;
46377;SDS011;32083;47.360;9.650;2022-08-04T11:55:15;4.47;;;3.50;;
46377;SDS011;32083;47.360;9.650;2022-08-04T11:57:45;6.20;;;3.70;;
46377;SDS011;32083;47.360;9.650;2022-08-04T12:00:12;5.82;;;3.65;;
46377;SDS011;32083;47.360;9.650;2022-08-04T12:05:11;4.47;;;3.50;;
46377;SDS011;32083;47.360;9.650;2022-08-04T12:16:19;5.30;;;2.95;;
46377;SDS011;32083;47.360;9.650;2022-08-04T12:23:49;2.90;;;2.65;;
46377;SDS011;32083;47.360;9.650;2022-08-04T12:26:22;4.57;;;2.83;;
46377;SDS011;32083;47.360;9.650;2022-08-04T12:28:51;4.18;;;2.95;;
46377;SDS011;32083;47.360;9.650;2022-08-04T12:34:16;2.55;;;2.20;;
46377;SDS011;32083;47.360;9.650;2022-08-04T12:39:20;4.07;;;2.42;;
46377;SDS011;32083;47.360;9.650;2022-08-04T12:42:01;6.88;;;2.45;;
46377;SDS011;32083;47.360;9.650;2022-08-04T12:44:40;3.88;;;2.50;;
46377;SDS011;32083;47.360;9.650;2022-08-04T12:47:09;2.55;;;2.35;;
46377;SDS011;32083;47.360;9.650;2022-08-04T12:49:37;3.00;;;2.75;;
46377;SDS011;32083;47.360;9.650;2022-08-04T12:52:07;3.08;;;2.78;;
46377;SDS011;32083;47.360;9.650;2022-08-04T12:54:34;2.92;;;2.20;;
46377;SDS011;32083;47.360;9.650;2022-08-04T12:57:05;3.50;;;2.45;;
46377;SDS011;32083;47.360;9.650;2022-08-04T12:59:45;4.05;;;2.58;;
46377;SDS011;32083;47.360;9.650;2022-08-04T13:02:34;11.85;;;3.13;;
46377;SDS011;32083;47.360;9.650;2022-08-04T13:05:03;5.50;;;2.25;;
46377;SDS011;32083;47.360;9.650;2022-08-04T13:07:35;4.93;;;2.42;;
46377;SDS011;32083;47.360;9.650;2022-08-04T13:10:15;3.65;;;2.47;;
46377;SDS011;32083;47.360;9.650;2022-08-04T13:12:43;3.47;;;2.60;;
46377;SDS011;32083;47.360;9.650;2022-08-04T13:15:19;5.38;;;2.95;;
46377;SDS011;32083;47.360;9.650;2022-08-04T13:20:27;4.38;;;2.83;;
46377;SDS011;32083;47.360;9.650;2022-08-04T13:22:58;4.55;;;2.75;;
46377;SDS011;32083;47.360;9.650;2022-08-04T13:25:26;6.72;;;2.83;;
46377;SDS011;32083;47.360;9.650;2022-08-04T13:27:54;3.53;;;2.28;;
46377;SDS011;32083;47.360;9.650;2022-08-04T13:30:22;3.33;;;2.45;;
46377;SDS011;32083;47.360;9.650;2022-08-04T13:33:08;4.70;;;2.80;;
46377;SDS011;32083;47.360;9.650;2022-08-04T13:35:35;2.97;;;2.78;;
46377;SDS011;32083;47.360;9.650;2022-08-04T13:38:10;3.60;;;3.30;;
46377;SDS011;32083;47.360;9.650;2022-08-04T13:40:38;5.28;;;2.70;;
46377;SDS011;32083;47.360;9.650;2022-08-04T13:43:06;3.22;;;2.72;;
46377;SDS011;32083;47.360;9.650;2022-08-04T13:45:34;9.63;;;3.40;;
46377;SDS011;32083;47.360;9.650;2022-08-04T13:48:02;2.58;;;2.22;;
46377;SDS011;32083;47.360;9.650;2022-08-04T13:50:30;5.05;;;2.97;;
46377;SDS011;32083;47.360;9.650;2022-08-04T13:52:58;3.38;;;2.05;;
46377;SDS011;32083;47.360;9.650;2022-08-04T13:55:26;2.45;;;2.25;;
46377;SDS011;32083;47.360;9.650;2022-08-04T14:00:45;3.78;;;2.90;;
46377;SDS011;32083;47.360;9.650;2022-08-04T14:03:37;2.55;;;2.35;;
46377;SDS011;32083;47.360;9.650;2022-08-04T14:06:30;3.35;;;2.88;;
46377;SDS011;32083;47.360;9.650;2022-08-04T14:08:55;2.40;;;2.20;;
46377;SDS011;32083;47.360;9.650;2022-08-04T14:14:00;8.77;;;2.90;;
46377;SDS011;32083;47.360;9.650;2022-08-04T14:16:37;3.75;;;2.53;;
46377;SDS011;32083;47.360;9.650;2022-08-04T14:19:18;4.10;;;2.03;;
46377;SDS011;32083;47.360;9.650;2022-08-04T14:21:44;4.90;;;2.15;;
46377;SDS011;32083;47.360;9.650;2022-08-04T14:24:10;5.85;;;2.60;;
46377;SDS011;32083;47.360;9.650;2022-08-04T14:26:46;5.97;;;2.05;;
46377;SDS011;32083;47.360;9.650;2022-08-04T14:29:13;2.60;;;2.05;;
46377;SDS011;32083;47.360;9.650;2022-08-04T14:31:40;5.10;;;2.45;;
46377;SDS011;32083;47.360;9.650;2022-08-04T14:34:06;6.50;;;2.50;;
46377;SDS011;32083;47.360;9.650;2022-08-04T14:36:39;5.63;;;2.50;;
46377;SDS011;32083;47.360;9.650;2022-08-04T14:39:06;3.53;;;2.08;;
46377;SDS011;32083;47.360;9.650;2022-08-04T14:41:45;3.85;;;2.28;;
46377;SDS011;32083;47.360;9.650;2022-08-04T14:44:13;3.05;;;2.05;;
46377;SDS011;32083;47.360;9.650;2022-08-04T14:46:49;6.78;;;2.55;;
46377;SDS011;32083;47.360;9.650;2022-08-04T14:49:16;4.20;;;2.00;;
46377;SDS011;32083;47.360;9.650;2022-08-04T14:51:43;4.45;;;1.73;;
46377;SDS011;32083;47.360;9.650;2022-08-04T14:54:15;2.88;;;1.95;;
46377;SDS011;32083;47.360;9.650;2022-08-04T14:56:54;3.75;;;2.28;;
46377;SDS011;32083;47.360;9.650;2022-08-04T14:59:22;4.80;;;2.08;;
46377;SDS011;32083;47.360;9.650;2022-08-04T15:01:49;3.30;;;1.90;;
46377;SDS011;32083;47.360;9.650;2022-08-04T15:04:16;2.90;;;2.70;;
46377;SDS011;32083;47.360;9.650;2022-08-04T15:06:43;5.13;;;2.22;;
46377;SDS011;32083;47.360;9.650;2022-08-04T15:09:11;10.57;;;2.63;;
46377;SDS011;32083;47.360;9.650;2022-08-04T15:11:38;3.22;;;1.90;;
46377;SDS011;32083;47.360;9.650;2022-08-04T15:14:04;2.67;;;2.00;;
46377;SDS011;32083;47.360;9.650;2022-08-04T15:16:31;1.98;;;1.75;;
46377;SDS011;32083;47.360;9.650;2022-08-04T15:18:58;4.68;;;1.92;;
46377;SDS011;32083;47.360;9.650;2022-08-04T15:21:25;3.08;;;1.95;;
46377;SDS011;32083;47.360;9.650;2022-08-04T15:23:56;5.40;;;2.70;;
46377;SDS011;32083;47.360;9.650;2022-08-04T15:29:03;4.20;;;2.00;;
46377;SDS011;32083;47.360;9.650;2022-08-04T15:31:36;6.50;;;2.00;;
46377;SDS011;32083;47.360;9.650;2022-08-04T15:34:05;2.17;;;1.98;;
46377;SDS011;32083;47.360;9.650;2022-08-04T15:47:17;2.55;;;2.15;;
46377;SDS011;32083;47.360;9.650;2022-08-04T15:49:43;7.55;;;2.67;;
46377;SDS011;32083;47.360;9.650;2022-08-04T15:52:13;6.65;;;2.65;;
46377;SDS011;32083;47.360;9.650;2022-08-04T15:54:41;2.78;;;2.08;;
46377;SDS011;32083;47.360;9.650;2022-08-04T15:57:07;1.92;;;1.52;;
46377;SDS011;32083;47.360;9.650;2022-08-04T16:07:58;4.90;;;1.90;;
46377;SDS011;32083;47.360;9.650;2022-08-04T16:12:58;4.07;;;2.28;;
46377;SDS011;32083;47.360;9.650;2022-08-04T16:18:03;3.55;;;1.90;;
46377;SDS011;32083;47.360;9.650;2022-08-04T16:20:29;4.28;;;2.15;;
46377;SDS011;32083;47.360;9.650;2022-08-04T16:23:00;2.03;;;1.60;;
46377;SDS011;32083;47.360;9.650;2022-08-04T16:25:57;4.15;;;1.95;;
46377;SDS011;32083;47.360;9.650;2022-08-04T16:31:05;4.72;;;1.80;;
46377;SDS011;32083;47.360;9.650;2022-08-04T16:33:33;4.25;;;2.10;;
46377;SDS011;32083;47.360;9.650;2022-08-04T16:36:00;4.50;;;2.42;;
46377;SDS011;32083;47.360;9.650;2022-08-04T16:38:27;4.22;;;2.40;;
46377;SDS011;32083;47.360;9.650;2022-08-04T16:40:54;11.70;;;1.80;;
46377;SDS011;32083;47.360;9.650;2022-08-04T16:43:21;4.47;;;2.00;;
46377;SDS011;32083;47.360;9.650;2022-08-04T16:45:52;2.50;;;1.77;;
46377;SDS011;32083;47.360;9.650;2022-08-04T16:48:29;2.72;;;2.05;;
46377;SDS011;32083;47.360;9.650;2022-08-04T16:53:31;3.10;;;1.90;;
46377;SDS011;32083;47.360;9.650;2022-08-04T17:00:56;4.03;;;1.85;;
46377;SDS011;32083;47.360;9.650;2022-08-04T17:03:23;5.95;;;2.72;;
46377;SDS011;32083;47.360;9.650;2022-08-04T17:05:50;3.53;;;2.13;;
46377;SDS011;32083;47.360;9.650;2022-08-04T17:08:42;2.53;;;2.10;;
46377;SDS011;32083;47.360;9.650;2022-08-04T17:11:09;4.03;;;2.00;;
46377;SDS011;32083;47.360;9.650;2022-08-04T17:13:40;3.63;;;1.92;;
46377;SDS011;32083;47.360;9.650;2022-08-04T17:16:10;3.67;;;1.92;;
46377;SDS011;32083;47.360;9.650;2022-08-04T17:18:43;2.80;;;1.98;;
46377;SDS011;32083;47.360;9.650;2022-08-04T17:21:12;4.05;;;2.00;;
46377;SDS011;32083;47.360;9.650;2022-08-04T17:23:47;4.85;;;2.10;;
46377;SDS011;32083;47.360;9.650;2022-08-04T17:26:22;3.42;;;2.42;;
46377;SDS011;32083;47.360;9.650;2022-08-04T17:28:51;3.42;;;2.03;;
46377;SDS011;32083;47.360;9.650;2022-08-04T17:31:19;6.25;;;3.00;;
46377;SDS011;32083;47.360;9.650;2022-08-04T17:33:49;10.15;;;4.40;;
46377;SDS011;32083;47.360;9.650;2022-08-04T17:36:18;2.95;;;2.10;;
46377;SDS011;32083;47.360;9.650;2022-08-04T17:38:52;2.50;;;2.30;;
46377;SDS011;32083;47.360;9.650;2022-08-04T17:41:20;4.83;;;2.80;;
46377;SDS011;32083;47.360;9.650;2022-08-04T17:43:48;4.80;;;2.50;;
46377;SDS011;32083;47.360;9.650;2022-08-04T17:49:04;4.28;;;2.50;;
46377;SDS011;32083;47.360;9.650;2022-08-04T17:54:11;3.60;;;2.30;;
46377;SDS011;32083;47.360;9.650;2022-08-04T17:56:57;2.58;;;2.38;;
46377;SDS011;32083;47.360;9.650;2022-08-04T17:59:25;3.35;;;2.13;;
46377;SDS011;32083;47.360;9.650;2022-08-04T18:01:53;2.85;;;2.30;;
46377;SDS011;32083;47.360;9.650;2022-08-04T18:06:56;2.72;;;2.33;;
46377;SDS011;32083;47.360;9.650;2022-08-04T18:11:56;3.53;;;2.92;;
46377;SDS011;32083;47.360;9.650;2022-08-04T18:14:24;3.90;;;2.60;;
46377;SDS011;32083;47.360;9.650;2022-08-04T18:16:51;4.18;;;3.00;;
46377;SDS011;32083;47.360;9.650;2022-08-04T18:19:17;4.38;;;2.20;;
46377;SDS011;32083;47.360;9.650;2022-08-04T18:21:43;2.42;;;2.13;;
46377;SDS011;32083;47.360;9.650;2022-08-04T18:24:12;4.00;;;1.92;;
46377;SDS011;32083;47.360;9.650;2022-08-04T18:26:39;5.43;;;2.60;;
46377;SDS011;32083;47.360;9.650;2022-08-04T18:29:06;2.63;;;2.10;;
46377;SDS011;32083;47.360;9.650;2022-08-04T18:31:33;2.72;;;1.75;;
46377;SDS011;32083;47.360;9.650;2022-08-04T18:34:02;5.82;;;2.67;;
46377;SDS011;32083;47.360;9.650;2022-08-04T18:36:29;3.40;;;2.15;;
46377;SDS011;32083;47.360;9.650;2022-08-04T18:38:56;8.57;;;2.33;;
46377;SDS011;32083;47.360;9.650;2022-08-04T18:41:26;3.17;;;2.70;;
46377;SDS011;32083;47.360;9.650;2022-08-04T18:43:53;5.53;;;2.05;;
46377;SDS011;32083;47.360;9.650;2022-08-04T18:46:19;2.85;;;2.17;;
46377;SDS011;32083;47.360;9.650;2022-08-04T18:48:45;7.22;;;2.53;;
46377;SDS011;32083;47.360;9.650;2022-08-04T18:51:11;5.45;;;2.20;;
46377;SDS011;32083;47.360;9.650;2022-08-04T18:53:36;6.05;;;2.92;;
46377;SDS011;32083;47.360;9.650;2022-08-04T18:56:03;5.13;;;2.40;;
46377;SDS011;32083;47.360;9.650;2022-08-04T18:58:29;3.50;;;2.20;;
46377;SDS011;32083;47.360;9.650;2022-08-04T19:00:55;2.47;;;1.80;;
46377;SDS011;32083;47.360;9.650;2022-08-04T19:03:21;9.23;;;2.88;;
46377;SDS011;32083;47.360;9.650;2022-08-04T19:05:47;2.55;;;2.33;;
46377;SDS011;32083;47.360;9.650;2022-08-04T19:08:14;7.20;;;3.25;;
46377;SDS011;32083;47.360;9.650;2022-08-04T19:10:39;5.55;;;2.70;;
46377;SDS011;32083;47.360;9.650;2022-08-04T19:13:05;3.00;;;2.67;;
46377;SDS011;32083;47.360;9.650;2022-08-04T19:15:31;4.43;;;2.38;;
46377;SDS011;32083;47.360;9.650;2022-08-04T19:17:57;3.85;;;2.30;;
46377;SDS011;32083;47.360;9.650;2022-08-04T19:20:24;2.90;;;2.67;;
46377;SDS011;32083;47.360;9.650;2022-08-04T19:22:50;5.72;;;3.67;;
46377;SDS011;32083;47.360;9.650;2022-08-04T19:25:16;3.20;;;2.90;;
46377;SDS011;32083;47.360;9.650;2022-08-04T19:27:42;4.68;;;2.70;;
46377;SDS011;32083;47.360;9.650;2022-08-04T19:30:08;4.78;;;2.67;;
46377;SDS011;32083;47.360;9.650;2022-08-04T19:32:34;5.60;;;2.95;;
46377;SDS011;32083;47.360;9.650;2022-08-04T19:35:00;6.07;;;3.05;;
46377;SDS011;32083;47.360;9.650;2022-08-04T19:37:26;6.80;;;2.60;;
46377;SDS011;32083;47.360;9.650;2022-08-04T19:39:52;3.85;;;2.83;;
46377;SDS011;32083;47.360;9.650;2022-08-04T19:42:18;2.90;;;2.65;;
46377;SDS011;32083;47.360;9.650;2022-08-04T19:44:44;5.18;;;2.97;;
46377;SDS011;32083;47.360;9.650;2022-08-04T19:47:10;7.78;;;3.28;;
46377;SDS011;32083;47.360;9.650;2022-08-04T19:49:36;8.98;;;2.67;;
46377;SDS011;32083;47.360;9.650;2022-08-04T19:52:02;6.88;;;3.35;;
46377;SDS011;32083;47.360;9.650;2022-08-04T19:54:28;5.60;;;2.78;;
46377;SDS011;32083;47.360;9.650;2022-08-04T19:56:54;3.45;;;2.50;;
46377;SDS011;32083;47.360;9.650;2022-08-04T19:59:19;3.47;;;2.90;;
46377;SDS011;32083;47.360;9.650;2022-08-04T20:01:45;3.50;;;2.55;;
46377;SDS011;32083;47.360;9.650;2022-08-04T20:04:12;5.13;;;3.00;;
46377;SDS011;32083;47.360;9.650;2022-08-04T20:06:38;4.55;;;3.17;;
46377;SDS011;32083;47.360;9.650;2022-08-04T20:09:04;5.38;;;3.13;;
46377;SDS011;32083;47.360;9.650;2022-08-04T20:11:30;5.35;;;3.22;;
46377;SDS011;32083;47.360;9.650;2022-08-04T20:13:56;6.10;;;4.00;;
46377;SDS011;32083;47.360;9.650;2022-08-04T20:16:22;5.38;;;3.35;;
46377;SDS011;32083;47.360;9.650;2022-08-04T20:18:48;5.05;;;3.08;;
46377;SDS011;32083;47.360;9.650;2022-08-04T20:21:14;5.88;;;3.40;;
46377;SDS011;32083;47.360;9.650;2022-08-04T20:23:40;4.90;;;3.95;;
46377;SDS011;32083;47.360;9.650;2022-08-04T20:26:06;4.70;;;3.10;;
46377;SDS011;32083;47.360;9.650;2022-08-04T20:28:33;7.55;;;3.22;;
46377;SDS011;32083;47.360;9.650;2022-08-04T20:31:01;4.68;;;3.97;;
46377;SDS011;32083;47.360;9.650;2022-08-04T20:33:27;4.45;;;3.92;;
46377;SDS011;32083;47.360;9.650;2022-08-04T20:35:53;6.47;;;3.60;;
46377;SDS011;32083;47.360;9.650;2022-08-04T20:38:19;5.63;;;3.70;;
46377;SDS011;32083;47.360;9.650;2022-08-04T20:40:45;7.00;;;4.57;;
46377;SDS011;32083;47.360;9.650;2022-08-04T20:43:11;5.95;;;3.55;;
46377;SDS011;32083;47.360;9.650;2022-08-04T20:45:37;7.63;;;4.30;;
46377;SDS011;32083;47.360;9.650;2022-08-04T20:48:03;5.63;;;3.95;;
46377;SDS011;32083;47.360;9.650;2022-08-04T20:50:29;7.65;;;3.58;;
46377;SDS011;32083;47.360;9.650;2022-08-04T20:52:56;5.45;;;3.83;;
46377;SDS011;32083;47.360;9.650;2022-08-04T20:55:22;4.82;;;3.30;;
46377;SDS011;32083;47.360;9.650;2022-08-04T20:57:49;6.68;;;3.75;;
46377;SDS011;32083;47.360;9.650;2022-08-04T21:00:15;4.13;;;3.75;;
46377;SDS011;32083;47.360;9.650;2022-08-04T21:02:41;4.35;;;3.50;;
46377;SDS011;32083;47.360;9.650;2022-08-04T21:05:08;4.63;;;3.78;;
46377;SDS011;32083;47.360;9.650;2022-08-04T21:07:34;5.03;;;3.63;;
46377;SDS011;32083;47.360;9.650;2022-08-04T21:10:00;4.50;;;3.28;;